sensor_id;sensor_type;location;lat;lon;timestamp;temperature;humidity
16515;DHT22;8370;52.556;7.970;2022-08-21T00:02:23;14.90;99.90
16515;DHT22;8370;52.556;7.970;2022-08-21T00:04:49;14.90;99.90
16515;DHT22;8370;52.556;7.970;2022-08-21T00:07:16;14.90;99.90
16515;DHT22;8370;52.556;7.970;2022-08-21T00:09:42;14.90;99.90
16515;DHT22;8370;52.556;7.970;2022-08-21T00:12:08;14.90;99.90
16515;DHT22;8370;52.556;7.970;2022-08-21T00:14:34;14.80;99.90
16515;DHT22;8370;52.556;7.970;2022-08-21T00:17:00;14.90;99.90
16515;DHT22;8370;52.556;7.970;2022-08-21T00:19:26;14.90;99.90
16515;DHT22;8370;52.556;7.970;2022-08-21T00:21:53;14.90;99.90
16515;DHT22;8370;52.556;7.970;2022-08-21T00:24:20;14.80;99.90
16515;DHT22;8370;52.556;7.970;2022-08-21T00:26:46;14.80;99.90
16515;DHT22;8370;52.556;7.970;2022-08-21T00:29:13;14.80;99.90
16515;DHT22;8370;52.556;7.970;2022-08-21T00:31:39;14.80;99.90
16515;DHT22;8370;52.556;7.970;2022-08-21T00:34:05;14.80;99.90
16515;DHT22;8370;52.556;7.970;2022-08-21T00:36:30;14.80;99.90
16515;DHT22;8370;52.556;7.970;2022-08-21T00:38:56;14.80;99.90
16515;DHT22;8370;52.556;7.970;2022-08-21T00:41:22;14.80;99.90
16515;DHT22;8370;52.556;7.970;2022-08-21T00:43:49;14.80;99.90
16515;DHT22;8370;52.556;7.970;2022-08-21T00:46:17;14.90;99.90
16515;DHT22;8370;52.556;7.970;2022-08-21T00:48:43;14.90;99.90
16515;DHT22;8370;52.556;7.970;2022-08-21T00:51:19;14.90;99.90
16515;DHT22;8370;52.556;7.970;2022-08-21T00:53:53;14.90;99.90
16515;DHT22;8370;52.556;7.970;2022-08-21T00:56:20;15.00;99.90
16515;DHT22;8370;52.556;7.970;2022-08-21T00:58:47;15.00;99.90
16515;DHT22;8370;52.556;7.970;2022-08-21T01:01:13;14.90;99.90
16515;DHT22;8370;52.556;7.970;2022-08-21T01:03:39;14.90;99.90
16515;DHT22;8370;52.556;7.970;2022-08-21T01:06:05;14.90;99.90
16515;DHT22;8370;52.556;7.970;2022-08-21T01:08:32;14.90;99.90
16515;DHT22;8370;52.556;7.970;2022-08-21T01:10:59;14.80;99.90
16515;DHT22;8370;52.556;7.970;2022-08-21T01:13:26;14.80;99.90
16515;DHT22;8370;52.556;7.970;2022-08-21T01:15:55;14.70;99.90
16515;DHT22;8370;52.556;7.970;2022-08-21T01:18:22;14.60;99.90
16515;DHT22;8370;52.556;7.970;2022-08-21T01:21:08;14.60;99.90
16515;DHT22;8370;52.556;7.970;2022-08-21T01:23:36;14.60;99.90
16515;DHT22;8370;52.556;7.970;2022-08-21T01:26:03;14.50;99.90
16515;DHT22;8370;52.556;7.970;2022-08-21T01:28:33;14.50;99.90
16515;DHT22;8370;52.556;7.970;2022-08-21T01:31:01;14.50;99.90
16515;DHT22;8370;52.556;7.970;2022-08-21T01:33:28;14.50;99.90
16515;DHT22;8370;52.556;7.970;2022-08-21T01:35:53;14.50;99.90
16515;DHT22;8370;52.556;7.970;2022-08-21T01:38:19;14.50;99.90
16515;DHT22;8370;52.556;7.970;2022-08-21T01:40:44;14.60;99.90
16515;DHT22;8370;52.556;7.970;2022-08-21T01:43:10;14.50;99.90
16515;DHT22;8370;52.556;7.970;2022-08-21T01:45:35;14.50;99.90
16515;DHT22;8370;52.556;7.970;2022-08-21T01:48:01;14.60;99.90
16515;DHT22;8370;52.556;7.970;2022-08-21T01:50:27;14.60;99.90
16515;DHT22;8370;52.556;7.970;2022-08-21T01:52:53;14.60;99.90
16515;DHT22;8370;52.556;7.970;2022-08-21T01:55:19;14.60;99.90
16515;DHT22;8370;52.556;7.970;2022-08-21T01:58:05;14.60;99.90
16515;DHT22;8370;52.556;7.970;2022-08-21T02:00:30;14.60;99.90
16515;DHT22;8370;52.556;7.970;2022-08-21T02:02:56;14.50;99.90
16515;DHT22;8370;52.556;7.970;2022-08-21T02:05:21;14.50;99.90
16515;DHT22;8370;52.556;7.970;2022-08-21T02:07:53;14.50;99.90
16515;DHT22;8370;52.556;7.970;2022-08-21T02:10:23;14.50;99.90
16515;DHT22;8370;52.556;7.970;2022-08-21T02:12:49;14.40;99.90
16515;DHT22;8370;52.556;7.970;2022-08-21T02:15:15;14.40;99.90
16515;DHT22;8370;52.556;7.970;2022-08-21T02:17:47;14.40;99.90
16515;DHT22;8370;52.556;7.970;2022-08-21T02:20:18;14.40;99.90
16515;DHT22;8370;52.556;7.970;2022-08-21T02:22:44;14.30;99.90
16515;DHT22;8370;52.556;7.970;2022-08-21T02:25:10;14.30;99.90
16515;DHT22;8370;52.556;7.970;2022-08-21T02:27:41;14.30;99.90
16515;DHT22;8370;52.556;7.970;2022-08-21T02:30:10;14.30;99.90
16515;DHT22;8370;52.556;7.970;2022-08-21T02:32:36;14.30;99.90
16515;DHT22;8370;52.556;7.970;2022-08-21T02:35:02;14.30;99.90
16515;DHT22;8370;52.556;7.970;2022-08-21T02:37:28;14.20;99.90
16515;DHT22;8370;52.556;7.970;2022-08-21T02:39:53;14.20;99.90
16515;DHT22;8370;52.556;7.970;2022-08-21T02:42:19;14.20;99.90
16515;DHT22;8370;52.556;7.970;2022-08-21T02:44:44;14.20;99.90
16515;DHT22;8370;52.556;7.970;2022-08-21T02:47:10;14.20;99.90
16515;DHT22;8370;52.556;7.970;2022-08-21T02:49:35;14.20;99.90
16515;DHT22;8370;52.556;7.970;2022-08-21T02:52:01;14.20;99.90
16515;DHT22;8370;52.556;7.970;2022-08-21T02:54:26;14.20;99.90
16515;DHT22;8370;52.556;7.970;2022-08-21T02:56:52;14.20;99.90
16515;DHT22;8370;52.556;7.970;2022-08-21T02:59:18;14.20;99.90
16515;DHT22;8370;52.556;7.970;2022-08-21T03:01:43;14.20;99.90
16515;DHT22;8370;52.556;7.970;2022-08-21T03:04:09;14.20;99.90
16515;DHT22;8370;52.556;7.970;2022-08-21T03:06:34;14.10;99.90
16515;DHT22;8370;52.556;7.970;2022-08-21T03:09:00;14.10;99.90
16515;DHT22;8370;52.556;7.970;2022-08-21T03:11:25;14.10;99.90
16515;DHT22;8370;52.556;7.970;2022-08-21T03:13:51;14.10;99.90
16515;DHT22;8370;52.556;7.970;2022-08-21T03:16:17;14.00;99.90
16515;DHT22;8370;52.556;7.970;2022-08-21T03:18:44;14.00;99.90
16515;DHT22;8370;52.556;7.970;2022-08-21T03:21:10;13.90;99.90
16515;DHT22;8370;52.556;7.970;2022-08-21T03:23:36;13.90;99.90
16515;DHT22;8370;52.556;7.970;2022-08-21T03:26:03;13.90;99.90
16515;DHT22;8370;52.556;7.970;2022-08-21T03:28:29;13.80;99.90
16515;DHT22;8370;52.556;7.970;2022-08-21T03:30:54;13.80;99.90
16515;DHT22;8370;52.556;7.970;2022-08-21T03:33:21;13.80;99.90
16515;DHT22;8370;52.556;7.970;2022-08-21T03:35:55;13.80;99.90
16515;DHT22;8370;52.556;7.970;2022-08-21T03:38:21;13.80;99.90
16515;DHT22;8370;52.556;7.970;2022-08-21T03:40:47;13.80;99.90
16515;DHT22;8370;52.556;7.970;2022-08-21T03:43:12;13.70;99.90
16515;DHT22;8370;52.556;7.970;2022-08-21T03:45:38;13.70;99.90
16515;DHT22;8370;52.556;7.970;2022-08-21T03:48:05;13.70;99.90
16515;DHT22;8370;52.556;7.970;2022-08-21T03:50:34;13.60;99.90
16515;DHT22;8370;52.556;7.970;2022-08-21T03:52:59;13.60;99.90
16515;DHT22;8370;52.556;7.970;2022-08-21T03:55:26;13.60;99.90
16515;DHT22;8370;52.556;7.970;2022-08-21T03:57:52;13.50;99.90
16515;DHT22;8370;52.556;7.970;2022-08-21T04:00:19;13.50;99.90
16515;DHT22;8370;52.556;7.970;2022-08-21T04:02:45;13.50;99.90
16515;DHT22;8370;52.556;7.970;2022-08-21T04:05:14;13.40;99.90
16515;DHT22;8370;52.556;7.970;2022-08-21T04:07:58;13.40;99.90
16515;DHT22;8370;52.556;7.970;2022-08-21T04:10:26;13.40;99.90
16515;DHT22;8370;52.556;7.970;2022-08-21T04:12:52;13.30;99.90
16515;DHT22;8370;52.556;7.970;2022-08-21T04:15:18;13.30;99.90
16515;DHT22;8370;52.556;7.970;2022-08-21T04:17:44;13.30;99.90
16515;DHT22;8370;52.556;7.970;2022-08-21T04:20:09;13.30;99.90
16515;DHT22;8370;52.556;7.970;2022-08-21T04:22:35;13.30;99.90
16515;DHT22;8370;52.556;7.970;2022-08-21T04:25:00;13.30;99.90
16515;DHT22;8370;52.556;7.970;2022-08-21T04:27:26;13.20;99.90
16515;DHT22;8370;52.556;7.970;2022-08-21T04:29:52;13.20;99.90
16515;DHT22;8370;52.556;7.970;2022-08-21T04:32:24;13.20;99.90
16515;DHT22;8370;52.556;7.970;2022-08-21T04:34:50;13.10;99.90
16515;DHT22;8370;52.556;7.970;2022-08-21T04:37:15;13.10;99.90
16515;DHT22;8370;52.556;7.970;2022-08-21T04:39:42;13.00;99.90
16515;DHT22;8370;52.556;7.970;2022-08-21T04:42:07;13.00;99.90
16515;DHT22;8370;52.556;7.970;2022-08-21T04:44:34;13.00;99.90
16515;DHT22;8370;52.556;7.970;2022-08-21T04:47:00;13.00;99.90
16515;DHT22;8370;52.556;7.970;2022-08-21T04:49:25;13.00;99.90
16515;DHT22;8370;52.556;7.970;2022-08-21T04:51:51;13.00;99.90
16515;DHT22;8370;52.556;7.970;2022-08-21T04:54:20;13.00;99.90
16515;DHT22;8370;52.556;7.970;2022-08-21T04:57:00;13.00;99.90
16515;DHT22;8370;52.556;7.970;2022-08-21T04:59:35;13.00;99.90
16515;DHT22;8370;52.556;7.970;2022-08-21T05:02:02;13.10;99.90
16515;DHT22;8370;52.556;7.970;2022-08-21T05:04:30;13.10;99.90
16515;DHT22;8370;52.556;7.970;2022-08-21T05:07:00;13.10;99.90
16515;DHT22;8370;52.556;7.970;2022-08-21T05:09:27;13.20;99.90
16515;DHT22;8370;52.556;7.970;2022-08-21T05:11:53;13.20;99.90
16515;DHT22;8370;52.556;7.970;2022-08-21T05:14:19;13.20;99.90
16515;DHT22;8370;52.556;7.970;2022-08-21T05:16:45;13.30;99.90
16515;DHT22;8370;52.556;7.970;2022-08-21T05:19:12;13.30;99.90
16515;DHT22;8370;52.556;7.970;2022-08-21T05:21:40;13.40;99.90
16515;DHT22;8370;52.556;7.970;2022-08-21T05:24:06;13.40;99.90
16515;DHT22;8370;52.556;7.970;2022-08-21T05:26:32;13.40;99.90
16515;DHT22;8370;52.556;7.970;2022-08-21T05:28:58;13.40;99.90
16515;DHT22;8370;52.556;7.970;2022-08-21T05:31:24;13.50;99.90
16515;DHT22;8370;52.556;7.970;2022-08-21T05:33:49;13.50;99.90
16515;DHT22;8370;52.556;7.970;2022-08-21T05:36:15;13.50;99.90
16515;DHT22;8370;52.556;7.970;2022-08-21T05:38:41;13.60;99.90
16515;DHT22;8370;52.556;7.970;2022-08-21T05:41:07;13.70;99.90
16515;DHT22;8370;52.556;7.970;2022-08-21T05:43:33;13.70;99.90
16515;DHT22;8370;52.556;7.970;2022-08-21T05:46:05;13.80;99.90
16515;DHT22;8370;52.556;7.970;2022-08-21T05:48:31;13.90;99.90
16515;DHT22;8370;52.556;7.970;2022-08-21T05:50:58;14.00;99.90
16515;DHT22;8370;52.556;7.970;2022-08-21T05:53:28;14.00;99.90
16515;DHT22;8370;52.556;7.970;2022-08-21T05:55:54;14.00;99.90
16515;DHT22;8370;52.556;7.970;2022-08-21T05:58:21;14.10;99.90
16515;DHT22;8370;52.556;7.970;2022-08-21T06:00:48;14.20;99.90
16515;DHT22;8370;52.556;7.970;2022-08-21T06:03:22;14.30;99.90
16515;DHT22;8370;52.556;7.970;2022-08-21T06:05:48;14.40;99.90
16515;DHT22;8370;52.556;7.970;2022-08-21T06:08:15;14.40;99.90
16515;DHT22;8370;52.556;7.970;2022-08-21T06:10:41;14.50;99.90
16515;DHT22;8370;52.556;7.970;2022-08-21T06:13:07;14.60;99.90
16515;DHT22;8370;52.556;7.970;2022-08-21T06:15:33;14.70;99.90
16515;DHT22;8370;52.556;7.970;2022-08-21T06:17:59;14.80;99.90
16515;DHT22;8370;52.556;7.970;2022-08-21T06:20:24;14.90;99.90
16515;DHT22;8370;52.556;7.970;2022-08-21T06:22:50;15.00;99.90
16515;DHT22;8370;52.556;7.970;2022-08-21T06:25:16;15.10;99.90
16515;DHT22;8370;52.556;7.970;2022-08-21T06:27:42;15.20;99.90
16515;DHT22;8370;52.556;7.970;2022-08-21T06:30:08;15.40;99.90
16515;DHT22;8370;52.556;7.970;2022-08-21T06:32:35;15.50;99.90
16515;DHT22;8370;52.556;7.970;2022-08-21T06:35:00;15.70;99.90
16515;DHT22;8370;52.556;7.970;2022-08-21T06:37:26;15.80;99.90
16515;DHT22;8370;52.556;7.970;2022-08-21T06:39:52;16.00;99.90
16515;DHT22;8370;52.556;7.970;2022-08-21T06:42:17;16.20;99.90
16515;DHT22;8370;52.556;7.970;2022-08-21T06:44:43;16.30;99.90
16515;DHT22;8370;52.556;7.970;2022-08-21T06:47:09;16.50;99.90
16515;DHT22;8370;52.556;7.970;2022-08-21T06:49:35;16.60;99.90
16515;DHT22;8370;52.556;7.970;2022-08-21T06:52:01;16.80;99.90
16515;DHT22;8370;52.556;7.970;2022-08-21T06:54:26;16.90;99.90
16515;DHT22;8370;52.556;7.970;2022-08-21T06:56:52;17.00;99.90
16515;DHT22;8370;52.556;7.970;2022-08-21T06:59:18;17.20;99.90
16515;DHT22;8370;52.556;7.970;2022-08-21T07:01:43;17.30;99.90
16515;DHT22;8370;52.556;7.970;2022-08-21T07:04:10;17.40;99.90
16515;DHT22;8370;52.556;7.970;2022-08-21T07:06:36;17.50;99.90
16515;DHT22;8370;52.556;7.970;2022-08-21T07:09:02;17.60;99.90
16515;DHT22;8370;52.556;7.970;2022-08-21T07:11:28;17.70;99.90
16515;DHT22;8370;52.556;7.970;2022-08-21T07:13:54;17.80;99.90
16515;DHT22;8370;52.556;7.970;2022-08-21T07:16:22;18.00;99.90
16515;DHT22;8370;52.556;7.970;2022-08-21T07:18:47;18.10;99.90
16515;DHT22;8370;52.556;7.970;2022-08-21T07:21:14;18.20;99.90
16515;DHT22;8370;52.556;7.970;2022-08-21T07:23:43;18.40;99.90
16515;DHT22;8370;52.556;7.970;2022-08-21T07:26:09;18.50;99.90
16515;DHT22;8370;52.556;7.970;2022-08-21T07:28:35;18.50;99.90
16515;DHT22;8370;52.556;7.970;2022-08-21T07:31:01;18.70;99.90
16515;DHT22;8370;52.556;7.970;2022-08-21T07:33:29;18.70;99.90
16515;DHT22;8370;52.556;7.970;2022-08-21T07:35:55;18.90;99.90
16515;DHT22;8370;52.556;7.970;2022-08-21T07:38:21;19.00;99.90
16515;DHT22;8370;52.556;7.970;2022-08-21T07:40:48;19.00;99.90
16515;DHT22;8370;52.556;7.970;2022-08-21T07:43:14;19.10;99.90
16515;DHT22;8370;52.556;7.970;2022-08-21T07:45:42;19.20;99.90
16515;DHT22;8370;52.556;7.970;2022-08-21T07:48:07;19.30;99.90
16515;DHT22;8370;52.556;7.970;2022-08-21T07:50:33;19.50;99.90
16515;DHT22;8370;52.556;7.970;2022-08-21T07:52:58;19.50;99.90
16515;DHT22;8370;52.556;7.970;2022-08-21T07:55:24;19.60;99.90
16515;DHT22;8370;52.556;7.970;2022-08-21T07:57:50;19.70;99.90
16515;DHT22;8370;52.556;7.970;2022-08-21T08:00:19;19.80;99.90
16515;DHT22;8370;52.556;7.970;2022-08-21T08:02:48;19.90;99.90
16515;DHT22;8370;52.556;7.970;2022-08-21T08:05:19;20.00;99.90
16515;DHT22;8370;52.556;7.970;2022-08-21T08:07:45;20.00;99.90
16515;DHT22;8370;52.556;7.970;2022-08-21T08:10:11;20.10;99.90
16515;DHT22;8370;52.556;7.970;2022-08-21T08:12:40;20.20;99.90
16515;DHT22;8370;52.556;7.970;2022-08-21T08:15:09;20.30;99.90
16515;DHT22;8370;52.556;7.970;2022-08-21T08:17:35;20.30;99.90
16515;DHT22;8370;52.556;7.970;2022-08-21T08:20:03;20.50;99.90
16515;DHT22;8370;52.556;7.970;2022-08-21T08:22:28;20.60;99.90
16515;DHT22;8370;52.556;7.970;2022-08-21T08:24:54;20.70;99.90
16515;DHT22;8370;52.556;7.970;2022-08-21T08:27:21;20.80;99.90
16515;DHT22;8370;52.556;7.970;2022-08-21T08:29:47;20.90;99.90
16515;DHT22;8370;52.556;7.970;2022-08-21T08:32:13;21.00;99.90
16515;DHT22;8370;52.556;7.970;2022-08-21T08:34:39;21.10;99.90
16515;DHT22;8370;52.556;7.970;2022-08-21T08:37:07;21.20;99.90
16515;DHT22;8370;52.556;7.970;2022-08-21T08:39:34;21.30;99.90
16515;DHT22;8370;52.556;7.970;2022-08-21T08:42:08;21.40;99.90
16515;DHT22;8370;52.556;7.970;2022-08-21T08:44:36;21.50;99.90
16515;DHT22;8370;52.556;7.970;2022-08-21T08:47:02;21.60;99.90
16515;DHT22;8370;52.556;7.970;2022-08-21T08:49:47;21.70;99.90
16515;DHT22;8370;52.556;7.970;2022-08-21T08:52:35;21.80;99.90
16515;DHT22;8370;52.556;7.970;2022-08-21T08:57:29;21.90;99.90
16515;DHT22;8370;52.556;7.970;2022-08-21T08:59:58;22.00;99.90
16515;DHT22;8370;52.556;7.970;2022-08-21T09:02:24;22.00;99.90
16515;DHT22;8370;52.556;7.970;2022-08-21T09:04:53;22.10;99.90
16515;DHT22;8370;52.556;7.970;2022-08-21T09:07:44;22.20;99.90
16515;DHT22;8370;52.556;7.970;2022-08-21T09:16:16;22.30;99.90
16515;DHT22;8370;52.556;7.970;2022-08-21T09:19:12;22.60;99.90
16515;DHT22;8370;52.556;7.970;2022-08-21T09:22:08;22.80;99.90
16515;DHT22;8370;52.556;7.970;2022-08-21T09:25:08;22.90;99.90
16515;DHT22;8370;52.556;7.970;2022-08-21T09:27:36;22.70;99.90
16515;DHT22;8370;52.556;7.970;2022-08-21T09:30:04;22.70;99.90
16515;DHT22;8370;52.556;7.970;2022-08-21T09:32:32;22.80;99.90
16515;DHT22;8370;52.556;7.970;2022-08-21T09:35:06;23.10;99.90
16515;DHT22;8370;52.556;7.970;2022-08-21T09:37:35;23.20;99.90
16515;DHT22;8370;52.556;7.970;2022-08-21T09:40:40;23.20;99.90
16515;DHT22;8370;52.556;7.970;2022-08-21T09:43:21;23.00;99.90
16515;DHT22;8370;52.556;7.970;2022-08-21T09:45:48;22.80;99.90
16515;DHT22;8370;52.556;7.970;2022-08-21T09:48:22;22.60;99.90
16515;DHT22;8370;52.556;7.970;2022-08-21T09:50:50;22.50;99.90
16515;DHT22;8370;52.556;7.970;2022-08-21T09:53:26;22.40;99.90
16515;DHT22;8370;52.556;7.970;2022-08-21T09:55:56;22.40;99.90
16515;DHT22;8370;52.556;7.970;2022-08-21T09:58:42;22.40;99.90
16515;DHT22;8370;52.556;7.970;2022-08-21T10:01:15;22.30;99.90
16515;DHT22;8370;52.556;7.970;2022-08-21T10:03:41;22.30;99.90
16515;DHT22;8370;52.556;7.970;2022-08-21T10:06:08;22.30;99.90
16515;DHT22;8370;52.556;7.970;2022-08-21T10:08:38;22.30;99.90
16515;DHT22;8370;52.556;7.970;2022-08-21T10:11:07;22.50;99.90
16515;DHT22;8370;52.556;7.970;2022-08-21T10:16:32;22.90;99.90
16515;DHT22;8370;52.556;7.970;2022-08-21T10:22:38;23.10;99.90
16515;DHT22;8370;52.556;7.970;2022-08-21T10:25:47;23.40;99.90
16515;DHT22;8370;52.556;7.970;2022-08-21T10:28:30;23.70;99.90
16515;DHT22;8370;52.556;7.970;2022-08-21T10:36:42;24.30;99.90
16515;DHT22;8370;52.556;7.970;2022-08-21T10:39:35;24.50;99.90
16515;DHT22;8370;52.556;7.970;2022-08-21T10:42:14;24.70;99.90
16515;DHT22;8370;52.556;7.970;2022-08-21T10:47:41;25.10;99.90
16515;DHT22;8370;52.556;7.970;2022-08-21T10:55:27;25.30;99.90
16515;DHT22;8370;52.556;7.970;2022-08-21T11:00:41;25.20;99.90
16515;DHT22;8370;52.556;7.970;2022-08-21T11:03:15;25.30;99.90
16515;DHT22;8370;52.556;7.970;2022-08-21T11:05:54;25.30;99.90
16515;DHT22;8370;52.556;7.970;2022-08-21T11:08:28;25.40;99.90
16515;DHT22;8370;52.556;7.970;2022-08-21T11:11:01;25.50;99.90
16515;DHT22;8370;52.556;7.970;2022-08-21T11:13:36;25.50;99.90
16515;DHT22;8370;52.556;7.970;2022-08-21T11:16:33;25.50;99.90
16515;DHT22;8370;52.556;7.970;2022-08-21T11:19:07;25.70;99.90
16515;DHT22;8370;52.556;7.970;2022-08-21T11:21:46;25.80;99.90
16515;DHT22;8370;52.556;7.970;2022-08-21T11:24:30;25.80;99.90
16515;DHT22;8370;52.556;7.970;2022-08-21T11:27:17;25.60;99.90
16515;DHT22;8370;52.556;7.970;2022-08-21T11:29:48;25.50;99.90
16515;DHT22;8370;52.556;7.970;2022-08-21T11:32:39;25.60;99.90
16515;DHT22;8370;52.556;7.970;2022-08-21T11:43:47;26.90;99.90
16515;DHT22;8370;52.556;7.970;2022-08-21T11:54:49;29.90;99.90
16515;DHT22;8370;52.556;7.970;2022-08-21T11:57:34;29.30;99.90
16515;DHT22;8370;52.556;7.970;2022-08-21T12:00:16;29.20;99.90
16515;DHT22;8370;52.556;7.970;2022-08-21T12:02:48;29.10;99.90
16515;DHT22;8370;52.556;7.970;2022-08-21T12:08:15;28.80;99.90
16515;DHT22;8370;52.556;7.970;2022-08-21T12:13:59;31.60;97.90
16515;DHT22;8370;52.556;7.970;2022-08-21T12:16:36;33.00;94.80
16515;DHT22;8370;52.556;7.970;2022-08-21T12:19:07;34.00;92.90
16515;DHT22;8370;52.556;7.970;2022-08-21T12:21:34;34.50;90.60
16515;DHT22;8370;52.556;7.970;2022-08-21T12:26:55;34.50;85.40
16515;DHT22;8370;52.556;7.970;2022-08-21T12:29:27;34.30;85.10
16515;DHT22;8370;52.556;7.970;2022-08-21T12:32:02;34.20;83.30
16515;DHT22;8370;52.556;7.970;2022-08-21T12:34:38;34.00;82.80
16515;DHT22;8370;52.556;7.970;2022-08-21T12:37:20;34.10;82.50
16515;DHT22;8370;52.556;7.970;2022-08-21T12:39:48;34.00;81.80
16515;DHT22;8370;52.556;7.970;2022-08-21T12:42:36;34.30;81.70
16515;DHT22;8370;52.556;7.970;2022-08-21T12:45:11;34.40;80.00
16515;DHT22;8370;52.556;7.970;2022-08-21T12:47:56;33.90;78.90
16515;DHT22;8370;52.556;7.970;2022-08-21T12:53:42;33.10;78.30
16515;DHT22;8370;52.556;7.970;2022-08-21T12:56:15;32.40;79.90
16515;DHT22;8370;52.556;7.970;2022-08-21T12:58:45;32.00;81.20
16515;DHT22;8370;52.556;7.970;2022-08-21T13:01:21;31.70;82.00
16515;DHT22;8370;52.556;7.970;2022-08-21T13:03:50;31.30;82.00
16515;DHT22;8370;52.556;7.970;2022-08-21T13:06:17;30.70;83.40
16515;DHT22;8370;52.556;7.970;2022-08-21T13:08:46;30.30;84.40
16515;DHT22;8370;52.556;7.970;2022-08-21T13:11:16;29.90;85.10
16515;DHT22;8370;52.556;7.970;2022-08-21T13:13:43;29.30;85.40
16515;DHT22;8370;52.556;7.970;2022-08-21T13:16:13;28.50;86.20
16515;DHT22;8370;52.556;7.970;2022-08-21T13:18:59;27.90;88.00
16515;DHT22;8370;52.556;7.970;2022-08-21T13:21:43;27.70;90.40
16515;DHT22;8370;52.556;7.970;2022-08-21T13:24:25;27.60;90.20
16515;DHT22;8370;52.556;7.970;2022-08-21T13:26:53;27.60;90.70
16515;DHT22;8370;52.556;7.970;2022-08-21T13:29:20;27.60;90.90
16515;DHT22;8370;52.556;7.970;2022-08-21T13:31:51;27.70;90.60
16515;DHT22;8370;52.556;7.970;2022-08-21T13:34:18;27.90;90.20
16515;DHT22;8370;52.556;7.970;2022-08-21T13:36:45;27.70;90.60
16515;DHT22;8370;52.556;7.970;2022-08-21T13:39:15;27.60;88.70
16515;DHT22;8370;52.556;7.970;2022-08-21T13:41:44;27.30;90.20
16515;DHT22;8370;52.556;7.970;2022-08-21T13:44:17;27.30;90.70
16515;DHT22;8370;52.556;7.970;2022-08-21T13:46:44;27.20;90.90
16515;DHT22;8370;52.556;7.970;2022-08-21T13:49:13;27.20;91.50
16515;DHT22;8370;52.556;7.970;2022-08-21T13:51:39;27.20;91.80
16515;DHT22;8370;52.556;7.970;2022-08-21T13:54:38;27.30;91.50
16515;DHT22;8370;52.556;7.970;2022-08-21T13:57:36;27.20;91.00
16515;DHT22;8370;52.556;7.970;2022-08-21T14:00:18;27.30;91.10
16515;DHT22;8370;52.556;7.970;2022-08-21T14:02:47;27.40;90.80
16515;DHT22;8370;52.556;7.970;2022-08-21T14:05:27;27.20;90.40
16515;DHT22;8370;52.556;7.970;2022-08-21T14:10:30;27.00;91.30
16515;DHT22;8370;52.556;7.970;2022-08-21T14:12:59;27.00;91.10
16515;DHT22;8370;52.556;7.970;2022-08-21T14:15:29;27.00;90.40
16515;DHT22;8370;52.556;7.970;2022-08-21T14:18:08;26.90;90.20
16515;DHT22;8370;52.556;7.970;2022-08-21T14:20:36;26.80;90.50
16515;DHT22;8370;52.556;7.970;2022-08-21T14:23:02;26.60;90.80
16515;DHT22;8370;52.556;7.970;2022-08-21T14:25:30;26.50;91.10
16515;DHT22;8370;52.556;7.970;2022-08-21T14:28:15;26.50;91.00
16515;DHT22;8370;52.556;7.970;2022-08-21T14:30:44;26.40;90.70
16515;DHT22;8370;52.556;7.970;2022-08-21T14:33:13;26.40;89.80
16515;DHT22;8370;52.556;7.970;2022-08-21T14:35:39;26.30;89.90
16515;DHT22;8370;52.556;7.970;2022-08-21T14:38:13;26.20;90.70
16515;DHT22;8370;52.556;7.970;2022-08-21T14:40:48;26.30;91.90
16515;DHT22;8370;52.556;7.970;2022-08-21T14:43:14;26.20;90.30
16515;DHT22;8370;52.556;7.970;2022-08-21T14:45:40;26.20;91.00
16515;DHT22;8370;52.556;7.970;2022-08-21T14:48:06;26.20;91.10
16515;DHT22;8370;52.556;7.970;2022-08-21T14:50:32;26.20;91.50
16515;DHT22;8370;52.556;7.970;2022-08-21T14:52:57;26.20;91.10
16515;DHT22;8370;52.556;7.970;2022-08-21T14:55:23;26.10;92.50
16515;DHT22;8370;52.556;7.970;2022-08-21T14:57:51;26.00;92.70
16515;DHT22;8370;52.556;7.970;2022-08-21T15:00:20;26.00;92.00
16515;DHT22;8370;52.556;7.970;2022-08-21T15:02:48;25.90;92.20
16515;DHT22;8370;52.556;7.970;2022-08-21T15:05:14;26.00;92.20
16515;DHT22;8370;52.556;7.970;2022-08-21T15:07:39;26.10;91.20
16515;DHT22;8370;52.556;7.970;2022-08-21T15:10:05;26.20;91.40
16515;DHT22;8370;52.556;7.970;2022-08-21T15:12:31;26.40;91.30
16515;DHT22;8370;52.556;7.970;2022-08-21T15:14:57;26.50;91.20
16515;DHT22;8370;52.556;7.970;2022-08-21T15:17:23;26.50;91.90
16515;DHT22;8370;52.556;7.970;2022-08-21T15:19:48;26.60;90.80
16515;DHT22;8370;52.556;7.970;2022-08-21T15:22:14;26.50;91.50
16515;DHT22;8370;52.556;7.970;2022-08-21T15:24:40;26.40;92.20
16515;DHT22;8370;52.556;7.970;2022-08-21T15:27:07;26.30;91.90
16515;DHT22;8370;52.556;7.970;2022-08-21T15:29:33;26.20;92.00
16515;DHT22;8370;52.556;7.970;2022-08-21T15:32:02;26.20;92.30
16515;DHT22;8370;52.556;7.970;2022-08-21T15:34:39;26.10;92.40
16515;DHT22;8370;52.556;7.970;2022-08-21T15:37:05;26.00;92.20
16515;DHT22;8370;52.556;7.970;2022-08-21T15:39:34;26.00;92.60
16515;DHT22;8370;52.556;7.970;2022-08-21T15:41:59;26.10;92.60
16515;DHT22;8370;52.556;7.970;2022-08-21T15:44:26;26.20;93.20
16515;DHT22;8370;52.556;7.970;2022-08-21T15:46:52;26.30;93.20
16515;DHT22;8370;52.556;7.970;2022-08-21T15:49:18;26.50;92.70
16515;DHT22;8370;52.556;7.970;2022-08-21T15:51:43;26.50;92.60
16515;DHT22;8370;52.556;7.970;2022-08-21T15:54:09;26.60;93.20
16515;DHT22;8370;52.556;7.970;2022-08-21T15:56:37;26.50;93.10
16515;DHT22;8370;52.556;7.970;2022-08-21T15:59:08;26.40;93.30
16515;DHT22;8370;52.556;7.970;2022-08-21T16:01:35;26.20;93.70
16515;DHT22;8370;52.556;7.970;2022-08-21T16:04:02;26.10;93.90
16515;DHT22;8370;52.556;7.970;2022-08-21T16:06:28;25.90;94.10
16515;DHT22;8370;52.556;7.970;2022-08-21T16:08:54;25.80;94.30
16515;DHT22;8370;52.556;7.970;2022-08-21T16:11:19;25.60;94.20
16515;DHT22;8370;52.556;7.970;2022-08-21T16:13:46;25.40;94.70
16515;DHT22;8370;52.556;7.970;2022-08-21T16:16:19;25.40;95.40
16515;DHT22;8370;52.556;7.970;2022-08-21T16:18:46;25.40;94.50
16515;DHT22;8370;52.556;7.970;2022-08-21T16:21:13;25.50;94.80
16515;DHT22;8370;52.556;7.970;2022-08-21T16:23:38;25.70;95.40
16515;DHT22;8370;52.556;7.970;2022-08-21T16:26:07;25.80;95.00
16515;DHT22;8370;52.556;7.970;2022-08-21T16:28:35;26.00;94.50
16515;DHT22;8370;52.556;7.970;2022-08-21T16:31:02;26.10;94.10
16515;DHT22;8370;52.556;7.970;2022-08-21T16:33:40;26.20;94.10
16515;DHT22;8370;52.556;7.970;2022-08-21T16:36:07;26.20;94.50
16515;DHT22;8370;52.556;7.970;2022-08-21T16:38:34;26.10;94.50
16515;DHT22;8370;52.556;7.970;2022-08-21T16:41:07;25.90;95.00
16515;DHT22;8370;52.556;7.970;2022-08-21T16:43:33;25.80;95.00
16515;DHT22;8370;52.556;7.970;2022-08-21T16:45:59;25.60;95.60
16515;DHT22;8370;52.556;7.970;2022-08-21T16:48:26;25.40;95.50
16515;DHT22;8370;52.556;7.970;2022-08-21T16:50:53;25.20;96.40
16515;DHT22;8370;52.556;7.970;2022-08-21T16:53:19;25.10;96.10
16515;DHT22;8370;52.556;7.970;2022-08-21T16:55:44;25.10;96.40
16515;DHT22;8370;52.556;7.970;2022-08-21T16:58:16;25.00;96.00
16515;DHT22;8370;52.556;7.970;2022-08-21T17:00:42;24.90;96.50
16515;DHT22;8370;52.556;7.970;2022-08-21T17:03:12;24.80;96.90